Terminal Aerodrome Forecast
Issued by NWS

Home | Current Version | Previous Version | Graphics & Text | Print | Product List | Glossary On
Versions: 1 2 3 4 5 6 7 8 9 10 11 12 13 14 15 16 17 18 19 20 21 22 23 24 25 26 27 28 29 30 31 32 33 34 35
000
FTUS43 KLOT 132200 AAD
TAFGYY
TAF AMD
KGYY 132211Z 1322/1418 07008KT 4SM -SHRA BR SCT005 OVC040
     FM132330 07008KT 1 1/2SM +TSRA SCT005 OVC030CB
     FM140000 09010KT 5SM BR VCSH SCT005 OVC040
     FM140200 18012G18KT P6SM VCSH OVC040
      TEMPO 1403/1405 2SM SHRA
     FM140500 21016G23KT 4SM SHRA VCTS OVC009CB
     FM141000 36020G33KT 4SM RA BR OVC009=

USA.gov is the U.S. government's official web portal to all federal, state and local government web resources and services.